createdAt,value
2022-10-13T00:01:14.025Z,6.38
2022-10-13T00:03:41.939Z,11.93
2022-10-13T00:06:11.087Z,9.80
2022-10-13T00:08:38.320Z,8.10
2022-10-13T00:11:17.322Z,8.65
2022-10-13T00:13:45.131Z,12.52
2022-10-13T00:16:14.254Z,11.23
2022-10-13T00:18:41.057Z,11.10
2022-10-13T00:21:13.987Z,9.60
2022-10-13T00:23:40.966Z,8.77
2022-10-13T00:26:11.019Z,11.05
2022-10-13T00:28:38.623Z,7.95
2022-10-13T00:31:25.159Z,9.82
2022-10-13T00:33:52.965Z,11.73
2022-10-13T00:36:22.277Z,8.95
2022-10-13T00:38:49.275Z,10.13
2022-10-13T00:41:16.190Z,11.20
2022-10-13T00:43:57.894Z,10.27
2022-10-13T00:46:26.813Z,10.00
2022-10-13T00:48:54.669Z,7.50
2022-10-13T00:51:24.474Z,10.68
2022-10-13T00:53:52.839Z,13.13
2022-10-13T00:56:21.638Z,7.20
2022-10-13T00:58:49.597Z,11.77
2022-10-13T01:01:16.987Z,8.15
2022-10-13T01:03:43.544Z,12.32
2022-10-13T01:06:12.628Z,8.40
2022-10-13T01:08:39.237Z,9.10
2022-10-13T01:11:14.849Z,13.50
2022-10-13T01:13:53.503Z,12.32
2022-10-13T01:16:41.500Z,8.40
2022-10-13T01:19:46.687Z,12.02
2022-10-13T01:22:25.854Z,8.32
2022-10-13T01:25:12.177Z,12.77
2022-10-13T01:28:01.128Z,8.23
2022-10-13T01:30:29.416Z,7.10
2022-10-13T01:33:26.591Z,13.60
2022-10-13T01:36:16.757Z,8.10
2022-10-13T01:38:57.201Z,9.13
2022-10-13T01:41:37.532Z,10.40
2022-10-13T01:44:16.034Z,14.38
2022-10-13T01:46:46.221Z,7.25
2022-10-13T01:49:16.928Z,7.35
2022-10-13T01:51:44.974Z,9.32
2022-10-13T01:54:11.639Z,10.98
2022-10-13T01:56:38.210Z,15.90
2022-10-13T01:59:14.199Z,11.57
2022-10-13T02:02:08.227Z,13.18
2022-10-13T02:04:59.508Z,8.80
2022-10-13T02:07:35.306Z,12.40
2022-10-13T02:10:07.893Z,12.38
2022-10-13T02:12:43.470Z,10.90
2022-10-13T02:15:15.737Z,7.25
2022-10-13T02:20:10.845Z,9.10
2022-10-13T02:22:42.397Z,8.57
2022-10-13T02:25:09.575Z,9.00
2022-10-13T02:27:35.981Z,7.40
2022-10-13T02:30:03.310Z,11.95
2022-10-13T02:32:29.830Z,10.70
2022-10-13T02:34:56.300Z,8.82
2022-10-13T02:37:25.429Z,12.20
2022-10-13T02:39:52.728Z,9.52
2022-10-13T02:42:19.585Z,8.43
2022-10-13T02:44:46.389Z,11.27
2022-10-13T02:47:13.325Z,11.23
2022-10-13T02:49:39.848Z,8.15
2022-10-13T02:52:07.094Z,15.23
2022-10-13T02:54:33.547Z,13.02
2022-10-13T02:57:01.172Z,9.98
2022-10-13T02:59:27.925Z,12.15
2022-10-13T03:01:54.569Z,11.50
2022-10-13T03:04:20.958Z,10.70
2022-10-13T03:06:47.571Z,7.93
2022-10-13T03:09:14.147Z,9.95
2022-10-13T03:11:40.722Z,9.60
2022-10-13T03:14:07.332Z,8.88
2022-10-13T03:16:33.901Z,14.00
2022-10-13T03:19:00.460Z,8.77
2022-10-13T03:21:27.089Z,13.50
2022-10-13T03:23:54.134Z,9.27
2022-10-13T03:26:20.674Z,15.13
2022-10-13T03:28:50.840Z,11.63
2022-10-13T03:31:18.811Z,10.50
2022-10-13T03:33:45.751Z,9.23
2022-10-13T03:36:13.406Z,10.10
2022-10-13T03:38:40.275Z,9.20
2022-10-13T03:41:09.295Z,10.30
2022-10-13T03:43:43.613Z,10.63
2022-10-13T03:46:15.065Z,13.45
2022-10-13T03:48:42.322Z,10.82
2022-10-13T03:51:11.693Z,13.50
2022-10-13T03:53:38.076Z,12.82
2022-10-13T03:56:25.039Z,13.43
2022-10-13T03:58:54.551Z,15.65
2022-10-13T04:01:23.526Z,11.25
2022-10-13T04:03:52.586Z,14.65
2022-10-13T04:06:19.235Z,13.95
2022-10-13T04:08:46.256Z,12.18
2022-10-13T04:11:15.555Z,10.02
2022-10-13T04:13:42.670Z,9.82
2022-10-13T04:16:13.463Z,11.20
2022-10-13T04:18:44.509Z,11.02
2022-10-13T04:21:14.955Z,10.38
2022-10-13T04:23:41.924Z,15.75
2022-10-13T04:26:16.559Z,11.10
2022-10-13T04:28:43.492Z,17.70
2022-10-13T04:31:10.072Z,14.05
2022-10-13T04:33:36.963Z,14.38
2022-10-13T04:36:05.495Z,13.73
2022-10-13T04:38:32.260Z,10.88
2022-10-13T04:40:59.279Z,14.85
2022-10-13T04:43:26.372Z,15.18
2022-10-13T04:45:53.183Z,9.98
2022-10-13T04:48:20.647Z,17.58
2022-10-13T04:50:47.041Z,17.27
2022-10-13T04:53:18.926Z,12.93
2022-10-13T04:58:12.984Z,12.38
2022-10-13T05:00:46.460Z,13.65
2022-10-13T05:03:13.460Z,10.27
2022-10-13T05:05:40.078Z,10.80
2022-10-13T05:08:06.692Z,12.32
2022-10-13T05:10:34.886Z,13.18
2022-10-13T05:13:01.846Z,11.48
2022-10-13T05:15:28.262Z,15.55
2022-10-13T05:17:54.889Z,14.98
2022-10-13T05:20:21.537Z,10.65
2022-10-13T05:22:48.087Z,13.95
2022-10-13T05:25:14.750Z,14.63
2022-10-13T05:27:41.552Z,15.38
2022-10-13T05:30:08.810Z,15.43
2022-10-13T05:32:36.069Z,11.55
2022-10-13T05:35:02.649Z,16.23
2022-10-13T05:37:29.052Z,13.73
2022-10-13T05:39:55.930Z,12.63
2022-10-13T05:42:22.820Z,11.50
2022-10-13T05:44:49.888Z,15.30
2022-10-13T05:47:16.692Z,11.88
2022-10-13T05:49:43.516Z,15.80
2022-10-13T05:52:12.756Z,14.48
2022-10-13T05:54:48.535Z,11.07
2022-10-13T05:57:25.962Z,15.15
2022-10-13T05:59:58.175Z,18.80
2022-10-13T06:04:56.794Z,11.63
2022-10-13T06:07:23.869Z,16.00
2022-10-13T06:09:50.944Z,14.80
2022-10-13T06:12:17.769Z,15.77
2022-10-13T06:14:44.517Z,16.80
2022-10-13T06:17:11.050Z,15.65
2022-10-13T06:19:37.930Z,15.10
2022-10-13T06:22:04.582Z,19.10
2022-10-13T06:24:31.738Z,14.73
2022-10-13T06:26:58.421Z,16.23
2022-10-13T06:29:24.974Z,19.73
2022-10-13T06:31:51.703Z,17.42
2022-10-13T06:34:18.438Z,19.27
2022-10-13T06:36:45.197Z,20.17
2022-10-13T06:39:11.892Z,15.00
2022-10-13T06:41:38.531Z,16.02
2022-10-13T06:44:05.818Z,20.70
2022-10-13T06:46:32.573Z,17.38
2022-10-13T06:48:59.484Z,16.73
2022-10-13T06:51:26.333Z,17.83
2022-10-13T06:53:53.180Z,16.50
2022-10-13T06:56:19.939Z,11.65
2022-10-13T06:58:47.115Z,20.23
2022-10-13T07:01:14.822Z,16.27
2022-10-13T07:03:41.340Z,21.42
2022-10-13T07:06:08.413Z,15.45
2022-10-13T07:08:35.826Z,16.77
2022-10-13T07:11:16.166Z,18.90
2022-10-13T07:13:46.282Z,16.05
2022-10-13T07:16:14.420Z,15.25
2022-10-13T07:18:41.031Z,21.10
2022-10-13T07:21:08.039Z,11.95
2022-10-13T07:23:34.938Z,16.05
2022-10-13T07:26:01.884Z,16.88
2022-10-13T07:28:29.298Z,21.13
2022-10-13T07:30:56.270Z,16.02
2022-10-13T07:33:22.839Z,18.63
2022-10-13T07:35:49.339Z,16.92
2022-10-13T07:38:16.609Z,18.33
2022-10-13T07:40:43.302Z,15.43
2022-10-13T07:43:10.105Z,16.85
2022-10-13T07:45:36.882Z,18.60
2022-10-13T07:48:03.838Z,17.98
2022-10-13T07:50:30.759Z,22.35
2022-10-13T07:52:57.418Z,19.02
2022-10-13T07:55:24.141Z,18.23
2022-10-13T07:57:51.008Z,17.00
2022-10-13T08:00:18.021Z,19.55
2022-10-13T08:02:44.756Z,20.77
2022-10-13T08:05:11.258Z,21.33
2022-10-13T08:07:39.372Z,21.52
2022-10-13T08:10:06.462Z,19.20
2022-10-13T08:12:35.640Z,20.35
2022-10-13T08:15:06.177Z,14.50
2022-10-13T08:17:36.039Z,19.13
2022-10-13T08:20:03.784Z,19.67
2022-10-13T08:22:30.332Z,23.02
2022-10-13T08:24:56.910Z,17.30
2022-10-13T08:27:37.059Z,17.08
2022-10-13T08:30:09.783Z,21.33
2022-10-13T08:32:36.233Z,21.15
2022-10-13T08:35:02.750Z,15.38
2022-10-13T08:37:29.470Z,21.70
2022-10-13T08:39:57.017Z,19.55
2022-10-13T08:42:23.789Z,26.00
2022-10-13T08:47:47.453Z,22.83
2022-10-13T08:50:16.797Z,23.02
2022-10-13T08:52:57.854Z,17.00
2022-10-13T08:55:33.198Z,18.98
2022-10-13T08:58:01.571Z,17.05
2022-10-13T09:00:30.384Z,20.08
2022-10-13T09:03:17.930Z,20.85
2022-10-13T09:05:55.697Z,16.80
2022-10-13T09:08:25.035Z,20.77
2022-10-13T09:10:53.149Z,19.50
2022-10-13T09:13:20.431Z,20.85
2022-10-13T09:15:50.209Z,18.48
2022-10-13T09:18:17.052Z,23.88
2022-10-13T09:20:43.705Z,18.00
2022-10-13T09:23:22.638Z,20.88
2022-10-13T09:25:51.768Z,19.30
2022-10-13T09:28:34.168Z,27.55
2022-10-13T09:33:59.741Z,23.77
2022-10-13T09:36:26.849Z,21.40
2022-10-13T09:39:16.064Z,20.13
2022-10-13T09:41:43.916Z,21.73
2022-10-13T09:44:30.571Z,20.33
2022-10-13T09:47:01.062Z,25.02
2022-10-13T09:49:42.799Z,27.52
2022-10-13T09:52:12.293Z,21.98
2022-10-13T09:54:50.992Z,21.27
2022-10-13T09:57:33.284Z,22.50
2022-10-13T10:00:28.205Z,24.80
2022-10-13T10:03:04.826Z,26.55
2022-10-13T10:05:50.629Z,23.67
2022-10-13T10:08:28.802Z,23.27
2022-10-13T10:11:10.395Z,21.77
2022-10-13T10:13:37.093Z,23.10
2022-10-13T10:16:31.688Z,24.33
2022-10-13T10:19:34.575Z,22.85
2022-10-13T10:22:15.582Z,25.40
2022-10-13T10:25:00.948Z,24.55
2022-10-13T10:27:39.972Z,20.65
2022-10-13T10:30:20.295Z,28.10
2022-10-13T10:33:13.800Z,23.52
2022-10-13T10:35:59.016Z,26.60
2022-10-13T10:38:43.918Z,20.88
2022-10-13T10:41:45.152Z,24.15
2022-10-13T10:44:22.368Z,22.80
2022-10-13T10:46:54.823Z,23.75
2022-10-13T10:49:30.904Z,22.30
2022-10-13T10:51:59.976Z,22.67
2022-10-13T10:54:37.188Z,28.42
2022-10-13T10:57:22.407Z,21.50
2022-10-13T11:00:03.576Z,21.38
2022-10-13T11:03:03.821Z,25.67
2022-10-13T11:06:05.323Z,21.75
2022-10-13T11:08:37.770Z,20.92
2022-10-13T11:11:26.622Z,22.92
2022-10-13T11:13:59.924Z,19.67
2022-10-13T11:16:29.332Z,22.20
2022-10-13T11:19:08.475Z,22.10
2022-10-13T11:21:53.868Z,25.65
2022-10-13T11:24:42.405Z,26.30
2022-10-13T11:27:11.636Z,24.25
2022-10-13T11:29:44.215Z,23.30
2022-10-13T11:32:35.138Z,22.27
2022-10-13T11:35:04.622Z,23.90
2022-10-13T11:38:05.749Z,26.05
2022-10-13T11:40:44.134Z,23.13
2022-10-13T11:43:38.435Z,18.42
2022-10-13T11:46:24.255Z,20.35
2022-10-13T11:49:09.703Z,21.55
2022-10-13T11:52:02.603Z,21.10
2022-10-13T11:54:50.333Z,21.30
2022-10-13T11:57:23.243Z,18.73
2022-10-13T11:59:54.713Z,21.85
2022-10-13T12:02:24.200Z,17.33
2022-10-13T12:05:25.544Z,24.90
2022-10-13T12:08:04.325Z,20.08
2022-10-13T12:10:35.435Z,23.08
2022-10-13T12:13:04.415Z,20.05
2022-10-13T12:15:36.834Z,19.65
2022-10-13T12:18:20.509Z,19.52
2022-10-13T12:20:55.552Z,23.67
2022-10-13T12:23:22.452Z,18.20
2022-10-13T12:25:56.463Z,21.63
2022-10-13T12:28:25.906Z,18.48
2022-10-13T12:30:58.444Z,20.30
2022-10-13T12:33:38.756Z,18.42
2022-10-13T12:36:18.687Z,20.02
2022-10-13T12:38:54.073Z,18.88
2022-10-13T12:41:26.930Z,21.60
2022-10-13T12:43:54.193Z,21.73
2022-10-13T12:46:39.168Z,19.35
2022-10-13T12:49:07.917Z,15.85
2022-10-13T12:51:36.930Z,18.85
2022-10-13T12:54:18.431Z,22.45
2022-10-13T12:56:45.232Z,16.60
2022-10-13T12:59:18.091Z,18.23
2022-10-13T13:01:45.589Z,18.35
2022-10-13T13:04:29.565Z,16.55
2022-10-13T13:06:58.941Z,17.83
2022-10-13T13:09:29.362Z,18.05
2022-10-13T13:12:11.057Z,16.40
2022-10-13T13:14:49.234Z,18.10
2022-10-13T13:17:38.518Z,20.50
2022-10-13T13:20:20.262Z,20.02
2022-10-13T13:22:46.926Z,22.05
2022-10-13T13:25:14.839Z,16.63
2022-10-13T13:27:41.693Z,17.55
2022-10-13T13:30:13.335Z,17.30
2022-10-13T13:32:40.555Z,19.92
2022-10-13T13:35:07.580Z,15.95
2022-10-13T13:37:40.280Z,22.42
2022-10-13T13:40:13.804Z,16.95
2022-10-13T13:42:40.242Z,18.48
2022-10-13T13:45:07.794Z,19.30
2022-10-13T13:47:34.402Z,17.58
2022-10-13T13:50:01.124Z,18.52
2022-10-13T13:52:28.044Z,20.25
2022-10-13T13:54:56.077Z,18.38
2022-10-13T13:57:23.092Z,16.23
2022-10-13T13:59:49.751Z,16.92
2022-10-13T14:02:20.197Z,17.02
2022-10-13T14:04:47.217Z,19.13
2022-10-13T14:07:14.006Z,15.95
2022-10-13T14:09:40.710Z,15.18
2022-10-13T14:12:07.448Z,17.27
2022-10-13T14:14:34.475Z,19.30
2022-10-13T14:17:01.759Z,21.83
2022-10-13T14:19:30.726Z,16.80
2022-10-13T14:21:57.262Z,13.82
2022-10-13T14:24:23.916Z,20.75
2022-10-13T14:26:53.103Z,20.75
2022-10-13T14:29:22.166Z,16.80
2022-10-13T14:31:48.849Z,19.77
2022-10-13T14:34:15.429Z,20.08
2022-10-13T14:36:43.004Z,16.83
2022-10-13T14:39:11.471Z,19.25
2022-10-13T14:41:38.892Z,18.23
2022-10-13T14:44:05.563Z,20.50
2022-10-13T14:46:32.434Z,25.48
2022-10-13T14:48:59.091Z,21.30
2022-10-13T14:51:25.524Z,14.63
2022-10-13T14:53:51.992Z,19.27
2022-10-13T14:56:24.051Z,15.95
2022-10-13T14:58:52.909Z,14.45
2022-10-13T15:01:20.276Z,16.33
2022-10-13T15:03:47.231Z,17.50
2022-10-13T15:06:16.424Z,17.02
2022-10-13T15:08:44.695Z,17.17
2022-10-13T15:11:12.246Z,21.67
2022-10-13T15:13:39.124Z,33.00
2022-10-13T15:16:07.341Z,23.00
2022-10-13T15:18:36.093Z,21.65
2022-10-13T15:21:04.846Z,19.95
2022-10-13T15:23:32.649Z,26.50
2022-10-13T15:26:01.116Z,19.90
2022-10-13T15:28:43.394Z,20.77
2022-10-13T15:33:37.261Z,18.75
2022-10-13T15:36:04.106Z,22.13
2022-10-13T15:38:32.196Z,20.10
2022-10-13T15:40:59.890Z,20.13
2022-10-13T15:43:26.776Z,16.00
2022-10-13T15:46:00.336Z,17.77
2022-10-13T15:48:27.486Z,23.38
2022-10-13T15:50:54.244Z,19.15
2022-10-13T15:53:21.248Z,17.80
2022-10-13T15:55:48.475Z,18.55
2022-10-13T15:58:15.662Z,19.55
2022-10-13T16:00:42.847Z,19.35
2022-10-13T16:03:17.802Z,16.85
2022-10-13T16:05:45.482Z,19.15
2022-10-13T16:08:12.663Z,20.55
2022-10-13T16:10:41.185Z,18.00
2022-10-13T16:13:08.943Z,18.88
2022-10-13T16:15:35.510Z,21.05
2022-10-13T16:18:02.376Z,19.13
2022-10-13T16:20:34.174Z,18.55
2022-10-13T16:23:01.528Z,21.83
2022-10-13T16:25:27.955Z,16.35
2022-10-13T16:27:54.724Z,17.83
2022-10-13T16:30:21.563Z,15.95
2022-10-13T16:32:48.132Z,20.02
2022-10-13T16:35:15.071Z,18.45
2022-10-13T16:37:43.777Z,20.42
2022-10-13T16:40:10.878Z,18.05
2022-10-13T16:42:37.979Z,21.73
2022-10-13T16:45:05.452Z,22.73
2022-10-13T16:47:32.182Z,20.30
2022-10-13T16:49:58.628Z,25.08
2022-10-13T16:52:25.285Z,21.60
2022-10-13T16:55:00.855Z,21.05
2022-10-13T16:57:29.844Z,21.70
2022-10-13T16:59:56.268Z,21.75
2022-10-13T17:02:23.098Z,21.25
2022-10-13T17:04:52.734Z,22.98
2022-10-13T17:07:19.977Z,25.70
2022-10-13T17:09:47.364Z,19.80
2022-10-13T17:12:14.566Z,19.08
2022-10-13T17:14:41.851Z,19.88
2022-10-13T17:17:08.434Z,21.73
2022-10-13T17:19:35.499Z,16.48
2022-10-13T17:22:02.277Z,17.02
2022-10-13T17:24:29.858Z,20.27
2022-10-13T17:26:56.626Z,20.73
2022-10-13T17:29:25.352Z,21.98
2022-10-13T17:31:52.552Z,19.63
2022-10-13T17:34:21.018Z,16.63
2022-10-13T17:36:47.784Z,21.02
2022-10-13T17:39:14.546Z,21.65
2022-10-13T17:41:41.335Z,20.90
2022-10-13T17:44:08.347Z,16.85
2022-10-13T17:46:38.066Z,20.17
2022-10-13T17:49:07.558Z,20.38
2022-10-13T17:51:34.443Z,15.50
2022-10-13T17:54:01.122Z,20.27
2022-10-13T17:56:28.995Z,19.02
2022-10-13T17:58:55.842Z,18.90
2022-10-13T18:01:27.568Z,22.70
2022-10-13T18:03:56.762Z,24.77
2022-10-13T18:06:23.485Z,27.40
2022-10-13T18:08:50.752Z,24.98
2022-10-13T18:11:20.044Z,26.98
2022-10-13T18:13:47.133Z,25.77
2022-10-13T18:16:19.558Z,25.27
2022-10-13T18:18:47.476Z,24.25
2022-10-13T18:21:17.433Z,27.00
2022-10-13T18:23:44.567Z,29.30
2022-10-13T18:26:14.109Z,31.50
2022-10-13T18:28:43.680Z,34.72
2022-10-13T18:31:13.285Z,34.83
2022-10-13T18:33:40.631Z,33.50
2022-10-13T18:36:16.661Z,30.98
2022-10-13T18:38:43.752Z,28.00
2022-10-13T18:41:10.394Z,31.35
2022-10-13T18:43:37.274Z,36.78
2022-10-13T18:46:04.811Z,34.13
2022-10-13T18:48:34.154Z,32.42
2022-10-13T18:51:09.571Z,33.15
2022-10-13T18:53:37.315Z,36.15
2022-10-13T18:56:32.369Z,35.33
2022-10-13T18:59:01.221Z,31.00
2022-10-13T19:01:30.809Z,31.65
2022-10-13T19:03:58.041Z,34.03
2022-10-13T19:06:27.346Z,33.88
2022-10-13T19:08:56.307Z,30.77
2022-10-13T19:11:30.176Z,30.65
2022-10-13T19:14:01.397Z,32.20
2022-10-13T19:16:30.338Z,31.35
2022-10-13T19:18:57.452Z,30.38
2022-10-13T19:21:24.759Z,34.35
2022-10-13T19:23:51.299Z,35.40
2022-10-13T19:26:21.563Z,33.72
2022-10-13T19:28:48.159Z,30.02
2022-10-13T19:31:18.021Z,30.88
2022-10-13T19:33:46.957Z,33.05
2022-10-13T19:36:23.826Z,39.55
2022-10-13T19:38:50.697Z,41.22
2022-10-13T19:41:18.123Z,40.47
2022-10-13T19:43:44.788Z,42.35
2022-10-13T19:46:11.945Z,44.65
2022-10-13T19:48:39.544Z,40.00
2022-10-13T19:51:07.970Z,48.63
2022-10-13T19:53:38.861Z,39.40
2022-10-13T19:56:06.537Z,41.03
2022-10-13T19:58:33.855Z,37.25
2022-10-13T20:01:06.007Z,39.10
2022-10-13T20:03:34.872Z,37.58
2022-10-13T20:06:05.920Z,36.85
2022-10-13T20:08:32.341Z,37.88
2022-10-13T20:11:00.642Z,38.13
2022-10-13T20:13:27.381Z,40.42
2022-10-13T20:15:54.855Z,37.17
2022-10-13T20:18:21.254Z,44.97
2022-10-13T20:20:47.791Z,40.35
2022-10-13T20:23:14.248Z,38.08
2022-10-13T20:25:40.841Z,38.00
2022-10-13T20:28:07.291Z,41.50
2022-10-13T20:30:34.949Z,37.38
2022-10-13T20:33:01.573Z,36.78
2022-10-13T20:35:28.164Z,39.28
2022-10-13T20:37:55.259Z,35.28
2022-10-13T20:40:22.202Z,38.13
2022-10-13T20:42:50.728Z,38.53
2022-10-13T20:45:17.891Z,40.08
2022-10-13T20:47:44.643Z,36.28
2022-10-13T20:50:11.847Z,42.67
2022-10-13T20:52:38.813Z,38.92
2022-10-13T20:55:05.372Z,39.78
2022-10-13T20:57:31.856Z,43.65
2022-10-13T20:59:58.422Z,39.78
2022-10-13T21:02:28.306Z,41.30
2022-10-13T21:04:55.218Z,45.40
2022-10-13T21:07:22.423Z,47.75
2022-10-13T21:09:53.683Z,48.28
2022-10-13T21:12:23.960Z,52.43
2022-10-13T21:14:50.753Z,47.22
2022-10-13T21:17:17.299Z,47.85
2022-10-13T21:19:44.284Z,52.95
2022-10-13T21:22:10.680Z,51.63
2022-10-13T21:24:38.342Z,51.25
2022-10-13T21:27:05.169Z,54.03
2022-10-13T21:29:33.541Z,52.17
2022-10-13T21:32:00.135Z,58.33
2022-10-13T21:34:27.473Z,55.78
2022-10-13T21:36:54.336Z,53.72
2022-10-13T21:39:21.198Z,58.47
2022-10-13T21:41:49.014Z,57.70
2022-10-13T21:44:18.852Z,63.05
2022-10-13T21:46:45.312Z,54.70
2022-10-13T21:49:17.719Z,56.47
2022-10-13T21:51:44.408Z,61.65
2022-10-13T21:54:15.407Z,65.78
2022-10-13T21:56:42.518Z,60.53
2022-10-13T21:59:12.886Z,65.07
2022-10-13T22:01:41.387Z,59.70
2022-10-13T22:04:12.882Z,61.35
2022-10-13T22:06:45.160Z,63.70
2022-10-13T22:11:41.024Z,66.53
2022-10-13T22:14:09.145Z,60.38
2022-10-13T22:16:45.707Z,63.13
2022-10-13T22:19:13.129Z,66.22
2022-10-13T22:21:43.163Z,74.05
2022-10-13T22:24:15.297Z,65.38
2022-10-13T22:29:14.943Z,62.58
2022-10-13T22:31:41.775Z,66.22
2022-10-13T22:34:10.282Z,64.35
2022-10-13T22:36:41.023Z,69.28
2022-10-13T22:39:10.583Z,66.65
2022-10-13T22:41:40.183Z,68.43
2022-10-13T22:44:08.695Z,62.63
2022-10-13T22:46:38.088Z,63.28
2022-10-13T22:49:06.291Z,62.30
2022-10-13T22:51:35.094Z,65.70
2022-10-13T22:54:02.333Z,63.22
2022-10-13T22:56:32.752Z,63.63
2022-10-13T22:59:06.055Z,65.63
2022-10-13T23:01:33.631Z,64.45
2022-10-13T23:04:00.693Z,64.93
2022-10-13T23:06:32.919Z,61.03
2022-10-13T23:11:28.207Z,60.13
2022-10-13T23:13:55.823Z,66.88
2022-10-13T23:16:25.355Z,63.10
2022-10-13T23:18:52.764Z,59.55
2022-10-13T23:21:23.349Z,62.33
2022-10-13T23:24:01.737Z,67.28
2022-10-13T23:26:29.300Z,67.38
2022-10-13T23:28:56.598Z,63.83
2022-10-13T23:31:26.062Z,68.15
2022-10-13T23:33:53.323Z,60.53
2022-10-13T23:36:23.375Z,65.25
2022-10-13T23:39:02.144Z,66.00
2022-10-13T23:41:29.145Z,61.72
2022-10-13T23:43:55.766Z,64.95
2022-10-13T23:46:22.671Z,63.08
2022-10-13T23:48:49.259Z,61.22
2022-10-13T23:51:21.991Z,63.13
2022-10-13T23:53:48.893Z,59.33
2022-10-13T23:56:15.838Z,65.25
2022-10-13T23:58:43.560Z,66.50
